Time;durP1;ratioP1;P1;durP2;ratioP2;P2;SDS_P1;SDS_P2;PMS_P1;PMS_P2;Temp;Humidity;BMP_temperature;BMP_pressure;BME280_temperature;BME280_humidity;BME280_pressure;Samples;Min_cycle;Max_cycle;Signal;HPM_P1;HPM_P2
2023/12/17 15:51:43;;;;;;;5.87;1.00;;;10.80;99.90;;;;;;5068976;28;21178;-82
2023/12/17 15:54:08;;;;;;;6.67;1.13;;;11.30;99.90;;;;;;5069421;28;20180;-82
2023/12/17 15:56:34;;;;;;;14.00;2.27;;;11.30;99.90;;;;;;5069018;28;20179;-83
2023/12/17 15:59:00;;;;;;;10.97;2.50;;;11.30;99.90;;;;;;5069278;28;20682;-82
2023/12/17 16:01:25;;;;;;;7.40;1.53;;;11.30;99.90;;;;;;5086616;28;20187;-82
2023/12/17 16:03:51;;;;;;;11.47;1.97;;;11.30;99.90;;;;;;5091944;28;20176;-81
2023/12/17 16:06:17;;;;;;;13.03;1.97;;;11.40;99.90;;;;;;5090758;28;20197;-82
2023/12/17 16:08:43;;;;;;;9.13;1.57;;;11.40;99.90;;;;;;5077149;28;20263;-81
2023/12/17 16:11:08;;;;;;;9.07;1.50;;;11.40;99.90;;;;;;5069505;28;20208;-81
2023/12/17 16:13:36;;;;;;;7.17;1.60;;;11.40;99.90;;;;;;5068636;28;20669;-82
2023/12/17 16:16:01;;;;;;;12.30;2.33;;;11.40;99.90;;;;;;5067547;28;20176;-83
2023/12/17 16:18:27;;;;;;;15.20;2.53;;;11.40;99.90;;;;;;5068282;28;20207;-81
2023/12/17 16:20:52;;;;;;;11.77;1.77;;;11.40;99.90;;;;;;5066853;28;20191;-82
2023/12/17 16:23:18;;;;;;;9.70;1.80;;;11.40;99.90;;;;;;5067431;28;20168;-80
2023/12/17 16:25:44;;;;;;;8.73;2.63;;;11.40;99.90;;;;;;5068037;28;20230;-81
2023/12/17 16:28:11;;;;;;;8.73;2.20;;;11.40;99.90;;;;;;5068307;28;20177;-79
2023/12/17 16:30:37;;;;;;;17.00;3.87;;;11.40;99.90;;;;;;5066444;28;20223;-79
2023/12/17 16:33:03;;;;;;;9.87;2.40;;;11.40;99.90;;;;;;5067965;28;20172;-80
2023/12/17 16:35:29;;;;;;;65.60;32.80;;;11.40;99.90;;;;;;5067625;28;20198;-79
2023/12/17 16:37:55;;;;;;;84.57;44.13;;;11.40;99.90;;;;;;5085821;28;20164;-79
2023/12/17 16:40:20;;;;;;;24.30;12.23;;;11.40;99.90;;;;;;5092150;28;20179;-80
2023/12/17 16:42:48;;;;;;;10.10;3.27;;;11.40;99.90;;;;;;5089522;28;20180;-80
2023/12/17 16:45:14;;;;;;;15.10;4.77;;;11.40;99.90;;;;;;5086552;28;20203;-80
2023/12/17 16:47:40;;;;;;;20.33;3.60;;;11.40;99.90;;;;;;5076075;28;20682;-82
2023/12/17 16:50:06;;;;;;;13.30;2.17;;;11.40;99.90;;;;;;5067056;28;20213;-81
2023/12/17 16:52:32;;;;;;;13.73;3.17;;;11.40;99.90;;;;;;5067240;28;20172;-82
2023/12/17 16:54:58;;;;;;;13.77;2.63;;;11.40;99.90;;;;;;5058325;28;20177;-81
2023/12/17 16:57:24;;;;;;;16.07;6.50;;;11.40;99.90;;;;;;5051419;28;20203;-81
2023/12/17 16:59:50;;;;;;;19.83;4.97;;;11.40;99.90;;;;;;5047928;28;20174;-81
2023/12/17 17:02:16;;;;;;;17.50;4.70;;;11.40;99.90;;;;;;5045597;28;20172;-82
2023/12/17 17:04:42;;;;;;;15.63;3.80;;;11.50;99.90;;;;;;5044820;28;20265;-80
2023/12/17 17:07:08;;;;;;;12.20;3.77;;;11.40;99.90;;;;;;5040909;28;20255;-83
2023/12/17 17:09:35;;;;;;;12.17;3.67;;;11.50;99.90;;;;;;5053975;28;20162;-80
2023/12/17 17:12:01;;;;;;;9.60;2.90;;;11.30;99.90;;;;;;5053700;28;20173;-81
2023/12/17 17:14:26;;;;;;;10.77;3.30;;;11.40;99.90;;;;;;5054436;28;20655;-79
2023/12/17 17:16:52;;;;;;;9.67;2.37;;;11.20;99.90;;;;;;5054468;28;20687;-82
2023/12/17 17:19:18;;;;;;;11.83;2.20;;;11.40;99.90;;;;;;5053452;28;20662;-83
2023/12/17 17:21:44;;;;;;;16.87;2.70;;;;;;;;;;5052822;28;20271;-83
2023/12/17 17:24:10;;;;;;;11.23;2.73;;;11.50;99.90;;;;;;5042915;28;20335;-83
2023/12/17 17:26:36;;;;;;;10.80;2.30;;;11.30;99.90;;;;;;5069214;28;20258;-83
2023/12/17 17:29:02;;;;;;;9.77;1.70;;;11.20;99.90;;;;;;5067789;28;20554;-84
2023/12/17 17:31:28;;;;;;;7.47;1.67;;;11.40;99.90;;;;;;5040960;28;20677;-83
2023/12/17 17:33:54;;;;;;;17.03;1.70;;;11.50;99.90;;;;;;5049140;28;20172;-81
2023/12/17 17:36:19;;;;;;;11.33;1.87;;;11.40;99.90;;;;;;5040680;28;20223;-81
2023/12/17 17:38:45;;;;;;;9.87;1.50;;;11.40;99.90;;;;;;5053479;28;20196;-83
2023/12/17 17:43:01;;;;;;;10.23;2.10;;;11.40;99.90;;;;;;5067293;28;20620;-82
2023/12/17 17:45:27;;;;;;;10.07;1.83;;;11.40;99.90;;;;;;5068553;28;20283;-81
2023/12/17 17:47:52;;;;;;;8.10;1.67;;;11.40;99.90;;;;;;5068526;28;20647;-82
2023/12/17 17:50:18;;;;;;;9.43;1.63;;;11.40;99.90;;;;;;5049147;28;20263;-81
2023/12/17 17:52:44;;;;;;;6.67;1.40;;;11.30;99.90;;;;;;5050412;28;20243;-81
2023/12/17 17:55:10;;;;;;;9.00;2.00;;;11.40;99.90;;;;;;5054655;28;20560;-80
2023/12/17 17:57:36;;;;;;;10.07;2.30;;;11.40;99.90;;;;;;5052214;28;20181;-82
2023/12/17 18:00:02;;;;;;;11.20;1.93;;;11.40;99.90;;;;;;5045298;28;20260;-84
2023/12/17 18:02:29;;;;;;;7.10;1.83;;;11.40;99.90;;;;;;5056051;28;20211;-81
2023/12/17 18:04:56;;;;;;;7.33;1.90;;;11.40;99.90;;;;;;5048768;28;20169;-84
2023/12/17 18:07:22;;;;;;;8.73;1.73;;;11.40;99.90;;;;;;5062289;28;20183;-83
2023/12/17 18:09:49;;;;;;;4.37;1.20;;;11.40;99.90;;;;;;5068141;28;20177;-80
2023/12/17 18:12:14;;;;;;;7.70;1.73;;;11.40;99.90;;;;;;5069789;28;20284;-84
2023/12/17 18:14:40;;;;;;;10.10;1.67;;;11.40;99.90;;;;;;5058681;28;20268;-82
2023/12/17 18:17:06;;;;;;;7.20;1.43;;;11.40;99.90;;;;;;5048953;28;20178;-86
2023/12/17 18:19:32;;;;;;;11.90;1.70;;;11.40;99.90;;;;;;5049218;28;20673;-83
2023/12/17 18:21:57;;;;;;;7.83;1.37;;;11.40;99.90;;;;;;5047285;28;20202;-83
2023/12/17 18:24:23;;;;;;;16.20;5.93;;;11.40;99.90;;;;;;5050507;28;20177;-82
2023/12/17 18:26:53;;;;;;;13.33;3.43;;;11.40;99.90;;;;;;5071205;28;20174;-84
2023/12/17 18:29:19;;;;;;;6.73;1.73;;;11.40;99.90;;;;;;5064216;28;20219;-84
2023/12/17 18:31:45;;;;;;;30.90;14.30;;;11.40;99.90;;;;;;5056745;28;20185;-82
2023/12/17 18:34:10;;;;;;;41.47;19.50;;;11.40;99.90;;;;;;5053641;28;20248;-82
2023/12/17 18:36:36;;;;;;;9.70;2.37;;;11.40;99.90;;;;;;5048149;28;20177;-82
2023/12/17 18:39:02;;;;;;;6.03;1.30;;;11.40;99.90;;;;;;5047940;28;20646;-85
2023/12/17 18:41:27;;;;;;;8.93;1.50;;;11.40;99.90;;;;;;5047548;28;20599;-82
2023/12/17 18:43:53;;;;;;;15.63;1.70;;;11.40;99.90;;;;;;5047060;28;20182;-83
2023/12/17 18:46:19;;;;;;;10.13;2.50;;;11.40;99.90;;;;;;5047717;28;20173;-83
2023/12/17 18:48:45;;;;;;;13.20;2.30;;;11.40;99.90;;;;;;5047844;28;20391;-80
2023/12/17 18:51:11;;;;;;;7.17;2.20;;;11.40;99.90;;;;;;5046408;28;20695;-83
2023/12/17 18:53:38;;;;;;;9.57;1.70;;;11.40;99.90;;;;;;5037091;28;20181;-80
2023/12/17 18:56:04;;;;;;;9.90;1.73;;;11.40;99.90;;;;;;5034264;28;20185;-79
2023/12/17 18:58:30;;;;;;;8.83;2.50;;;11.40;99.90;;;;;;5043799;28;20740;-80
2023/12/17 19:00:56;;;;;;;10.13;2.03;;;11.40;99.90;;;;;;5053751;28;20232;-80
2023/12/17 19:03:22;;;;;;;8.53;1.53;;;11.40;99.90;;;;;;5053777;28;20255;-79
2023/12/17 19:05:48;;;;;;;7.90;1.80;;;11.40;99.90;;;;;;5048720;28;20183;-82
2023/12/17 19:08:13;;;;;;;6.80;2.00;;;11.40;99.90;;;;;;5033968;28;20663;-82
2023/12/17 19:10:39;;;;;;;8.97;1.70;;;11.50;99.90;;;;;;5033394;28;20589;-82
2023/12/17 19:13:05;;;;;;;9.37;1.97;;;11.40;99.90;;;;;;5033827;28;20194;-85
2023/12/17 19:15:30;;;;;;;12.70;4.20;;;11.50;99.90;;;;;;5047040;28;20678;-83
2023/12/17 19:17:56;;;;;;;7.73;1.93;;;11.40;99.90;;;;;;5038328;28;20190;-81
2023/12/17 19:20:22;;;;;;;7.90;2.07;;;11.50;99.90;;;;;;5034629;28;20232;-81
2023/12/17 19:22:48;;;;;;;10.80;2.37;;;11.50;99.90;;;;;;5040823;28;20283;-81
2023/12/17 19:25:13;;;;;;;14.63;2.00;;;11.50;99.90;;;;;;5058581;28;20183;-85
2023/12/17 19:27:39;;;;;;;10.70;1.60;;;11.40;99.90;;;;;;5047142;28;20634;-84
2023/12/17 19:30:05;;;;;;;7.77;1.50;;;11.40;99.90;;;;;;5030864;28;20182;-85
2023/12/17 19:32:31;;;;;;;12.93;2.10;;;11.40;99.90;;;;;;5040677;28;20221;-85
2023/12/17 19:34:57;;;;;;;11.57;3.20;;;11.40;99.90;;;;;;5035129;28;20162;-86
2023/12/17 19:37:23;;;;;;;9.20;2.27;;;11.40;99.90;;;;;;5038951;28;20178;-85
2023/12/17 19:39:48;;;;;;;6.43;1.57;;;11.40;99.90;;;;;;5039732;28;20181;-86
2023/12/17 19:42:14;;;;;;;14.63;5.40;;;11.40;99.90;;;;;;5036781;28;20260;-86
2023/12/17 19:44:40;;;;;;;15.20;3.97;;;11.40;99.90;;;;;;5036538;28;20174;-87
2023/12/17 19:47:08;;;;;;;15.07;3.43;;;11.40;99.90;;;;;;5035534;28;20170;-82
2023/12/17 19:49:34;;;;;;;7.73;1.77;;;11.30;99.90;;;;;;5019350;28;20182;-82
2023/12/17 19:52:00;;;;;;;6.80;1.50;;;11.30;99.90;;;;;;5015605;28;20281;-81
2023/12/17 19:54:25;;;;;;;8.00;1.37;;;11.30;99.90;;;;;;5015385;28;20167;-83
2023/12/17 19:56:51;;;;;;;12.43;1.90;;;11.30;99.90;;;;;;5049122;28;20521;-82
2023/12/17 19:59:17;;;;;;;10.70;2.50;;;11.30;99.90;;;;;;5058816;28;20173;-83
2023/12/17 20:01:46;;;;;;;8.53;1.73;;;11.30;99.90;;;;;;5054589;28;20209;-82
2023/12/17 20:04:12;;;;;;;10.57;3.27;;;11.30;99.90;;;;;;5047518;28;20174;-83
2023/12/17 20:06:43;;;;;;;14.57;2.67;;;11.30;99.90;;;;;;5041123;28;20204;-85
2023/12/17 20:11:44;;;;;;;13.50;1.80;;;10.90;99.90;;;;;;5964535;22;20249;-83
2023/12/17 20:14:10;;;;;;;9.97;2.07;;;11.20;99.90;;;;;;5012776;28;20175;-83
2023/12/17 20:16:36;;;;;;;13.17;2.00;;;11.20;99.90;;;;;;4995234;28;20181;-86
2023/12/17 20:19:03;;;;;;;3.93;1.40;;;11.20;99.90;;;;;;5013253;28;20201;-85
2023/12/17 20:21:29;;;;;;;11.20;1.67;;;11.20;99.90;;;;;;5013371;28;20238;-84
2023/12/17 20:23:54;;;;;;;6.13;1.50;;;11.20;99.90;;;;;;5013430;28;20185;-87
2023/12/17 20:26:20;;;;;;;5.60;1.47;;;11.20;99.90;;;;;;5015198;28;20184;-86
2023/12/17 20:28:47;;;;;;;6.70;2.10;;;11.20;99.90;;;;;;5012942;28;20293;-87
2023/12/17 20:31:15;;;;;;;10.10;2.00;;;11.20;99.90;;;;;;5013666;28;20186;-86
2023/12/17 20:33:41;;;;;;;14.87;5.77;;;11.10;99.90;;;;;;5013203;28;20193;-86
2023/12/17 20:36:11;;;;;;;5.20;1.77;;;11.20;99.90;;;;;;5013799;28;20171;-85
2023/12/17 20:38:38;;;;;;;10.63;2.00;;;11.10;99.90;;;;;;5013292;28;20646;-85
2023/12/17 20:41:04;;;;;;;7.87;2.00;;;11.10;99.90;;;;;;5011929;28;20304;-83
2023/12/17 20:43:29;;;;;;;9.77;2.00;;;11.10;99.90;;;;;;5013251;28;20214;-84
2023/12/17 20:45:55;;;;;;;8.30;1.70;;;11.10;99.90;;;;;;5013051;28;20177;-84
2023/12/17 20:48:21;;;;;;;7.83;2.10;;;11.10;99.90;;;;;;5014832;28;20651;-83
2023/12/17 20:50:46;;;;;;;12.63;2.40;;;11.10;99.90;;;;;;5034970;28;20162;-83
2023/12/17 20:53:12;;;;;;;9.13;2.03;;;11.10;99.90;;;;;;5033694;28;20195;-85
2023/12/17 20:55:38;;;;;;;10.37;1.90;;;11.10;99.90;;;;;;5028253;28;20185;-84
2023/12/17 20:58:03;;;;;;;10.20;1.90;;;11.10;99.90;;;;;;5019479;28;20183;-83
2023/12/17 21:00:29;;;;;;;6.30;1.33;;;11.10;99.90;;;;;;5016610;28;20170;-82
2023/12/17 21:02:56;;;;;;;9.43;2.00;;;11.10;99.90;;;;;;5017717;28;20217;-82
2023/12/17 21:05:21;;;;;;;9.47;1.80;;;11.20;99.90;;;;;;5017214;28;20197;-84
2023/12/17 21:07:48;;;;;;;9.87;1.43;;;11.10;99.90;;;;;;5014111;28;20650;-84
2023/12/17 21:10:15;;;;;;;10.97;2.20;;;11.10;99.90;;;;;;5015645;28;20604;-84
2023/12/17 21:12:41;;;;;;;13.33;2.20;;;11.10;99.90;;;;;;5017988;28;20249;-84
2023/12/17 21:15:07;;;;;;;14.07;2.20;;;11.20;99.90;;;;;;5016521;28;20167;-85
2023/12/17 21:17:32;;;;;;;10.70;2.03;;;11.20;99.90;;;;;;5016344;28;20226;-82
2023/12/17 21:19:58;;;;;;;13.10;2.00;;;11.20;99.90;;;;;;5017997;28;20206;-82
2023/12/17 21:22:24;;;;;;;10.70;2.40;;;11.20;99.90;;;;;;5018180;28;20225;-83
2023/12/17 21:24:49;;;;;;;12.57;2.50;;;11.20;99.90;;;;;;5015173;28;20170;-83
2023/12/17 21:27:34;;;;;;;11.30;2.67;;;11.20;99.90;;;;;;5030473;28;20189;-85
2023/12/17 21:32:57;;;;;;;11.33;3.53;;;11.20;99.90;;;;;;5047899;28;20192;-84
2023/12/17 21:35:31;;;;;;;8.77;2.13;;;11.30;99.90;;;;;;5048382;28;20216;-82
2023/12/17 21:38:01;;;;;;;12.87;1.80;;;11.20;99.90;;;;;;5045921;28;20174;-84
2023/12/17 21:40:27;;;;;;;8.33;1.90;;;11.40;99.90;;;;;;5032248;28;20297;-81
2023/12/17 21:42:53;;;;;;;13.83;2.20;;;11.10;99.90;;;;;;5034986;28;20209;-82
2023/12/17 21:45:18;;;;;;;15.77;1.97;;;11.10;99.90;;;;;;5030862;28;20178;-84
2023/12/17 21:47:44;;;;;;;9.43;2.40;;;11.20;99.90;;;;;;5030267;28;20192;-82
2023/12/17 21:50:10;;;;;;;10.67;1.67;;;11.10;99.90;;;;;;5031351;28;20294;-83
2023/12/17 21:52:36;;;;;;;8.27;1.67;;;11.10;99.90;;;;;;5035670;28;20540;-83
2023/12/17 21:55:06;;;;;;;13.77;2.00;;;11.00;99.90;;;;;;5032470;28;20173;-83
2023/12/17 21:57:32;;;;;;;10.63;2.50;;;11.00;99.90;;;;;;5033067;28;20512;-83
2023/12/17 21:59:57;;;;;;;7.60;1.70;;;11.00;99.90;;;;;;5036592;28;20280;-81
2023/12/17 22:02:23;;;;;;;11.43;1.50;;;10.90;99.90;;;;;;5038170;28;20590;-80
2023/12/17 22:04:49;;;;;;;8.60;1.80;;;10.90;99.90;;;;;;5034232;28;20178;-83
2023/12/17 22:07:14;;;;;;;9.10;1.73;;;10.80;99.90;;;;;;5031490;28;20190;-81
2023/12/17 22:09:40;;;;;;;6.07;1.40;;;10.80;99.90;;;;;;5029306;28;20224;-84
2023/12/17 22:12:06;;;;;;;10.87;1.90;;;10.70;99.90;;;;;;5031210;28;20216;-82
2023/12/17 22:14:32;;;;;;;7.70;1.73;;;10.70;99.90;;;;;;5030647;28;20184;-83
2023/12/17 22:16:58;;;;;;;9.83;1.67;;;10.60;99.90;;;;;;5030876;28;20544;-82
2023/12/17 22:19:23;;;;;;;9.43;1.90;;;10.60;99.90;;;;;;5030318;28;20607;-84
2023/12/17 22:21:53;;;;;;;8.17;1.70;;;10.50;99.90;;;;;;5030489;28;20747;-82
2023/12/17 22:24:18;;;;;;;14.47;2.03;;;10.50;99.90;;;;;;5030506;28;20173;-82
2023/12/17 22:26:44;;;;;;;9.60;1.37;;;10.40;99.90;;;;;;5029951;28;20256;-80
2023/12/17 22:29:10;;;;;;;11.47;2.10;;;10.40;99.90;;;;;;5031751;28;20663;-80
2023/12/17 22:31:35;;;;;;;14.50;2.50;;;10.50;99.90;;;;;;5032572;28;20189;-82
2023/12/17 22:34:01;;;;;;;6.10;1.70;;;10.50;99.90;;;;;;5032936;28;20177;-82
2023/12/17 22:36:27;;;;;;;7.83;2.00;;;10.40;99.90;;;;;;5033952;28;20174;-84
2023/12/17 22:38:52;;;;;;;10.70;1.70;;;10.40;99.90;;;;;;5030818;28;20174;-83
2023/12/17 22:41:18;;;;;;;8.73;1.63;;;10.30;99.90;;;;;;5014371;28;20560;-83
2023/12/17 22:43:43;;;;;;;6.87;2.00;;;10.40;99.90;;;;;;5014380;28;20672;-82
2023/12/17 22:46:09;;;;;;;15.33;2.53;;;10.30;99.90;;;;;;5013066;28;20181;-84
